createdAt,value
2022-10-11T00:00:11.644Z,3.50
2022-10-11T00:01:11.809Z,3.20
2022-10-11T00:02:11.645Z,3.00
2022-10-11T00:03:11.589Z,3.00
2022-10-11T00:04:11.586Z,2.80
2022-10-11T00:05:11.553Z,2.60
2022-10-11T00:06:11.554Z,2.80
2022-10-11T00:07:11.765Z,2.70
2022-10-11T00:08:11.533Z,2.80
2022-10-11T00:09:11.529Z,3.20
2022-10-11T00:10:11.515Z,2.80
2022-10-11T00:11:11.512Z,2.60
2022-10-11T00:12:11.493Z,3.10
2022-10-11T00:13:11.623Z,2.90
2022-10-11T00:14:11.481Z,2.60
2022-10-11T00:15:11.458Z,2.40
2022-10-11T00:16:11.456Z,2.50
2022-10-11T00:17:11.423Z,2.50
2022-10-11T00:18:11.414Z,2.50
2022-10-11T00:19:11.792Z,2.60
2022-10-11T00:20:11.392Z,2.60
2022-10-11T00:21:11.389Z,2.70
2022-10-11T00:22:11.376Z,2.40
2022-10-11T00:23:11.363Z,2.50
2022-10-11T00:24:11.369Z,2.40
2022-10-11T00:25:11.539Z,3.00
2022-10-11T00:26:11.325Z,2.30
2022-10-11T00:27:11.318Z,2.10
2022-10-11T00:28:11.354Z,2.20
2022-10-11T00:29:11.306Z,1.80
2022-10-11T00:30:11.284Z,2.00
2022-10-11T00:31:11.635Z,1.80
2022-10-11T00:32:11.265Z,1.80
2022-10-11T00:33:11.263Z,2.20
2022-10-11T00:34:11.241Z,1.90
2022-10-11T00:35:11.225Z,2.50
2022-10-11T00:36:11.217Z,1.90
2022-10-11T00:37:11.374Z,2.00
2022-10-11T00:38:11.194Z,2.40
2022-10-11T00:39:12.949Z,2.10
2022-10-11T00:40:11.177Z,2.00
2022-10-11T00:41:11.167Z,1.70
2022-10-11T00:42:11.165Z,1.80
2022-10-11T00:43:11.464Z,1.60
2022-10-11T00:44:11.152Z,1.70
2022-10-11T00:45:11.120Z,1.40
2022-10-11T00:46:11.116Z,1.50
2022-10-11T00:47:11.093Z,1.60
2022-10-11T00:48:11.098Z,1.70
2022-10-11T00:49:11.226Z,1.60
2022-10-11T00:50:11.088Z,2.00
2022-10-11T00:51:11.087Z,1.40
2022-10-11T00:52:11.083Z,1.70
2022-10-11T00:53:11.039Z,1.60
2022-10-11T00:54:11.046Z,1.50
2022-10-11T00:55:11.236Z,1.40
2022-10-11T00:56:11.032Z,1.50
2022-10-11T00:57:10.995Z,1.50
2022-10-11T00:58:10.985Z,1.60
2022-10-11T00:59:10.980Z,2.00
2022-10-11T01:00:10.968Z,1.70
2022-10-11T01:01:11.329Z,1.50
2022-10-11T01:02:10.937Z,1.60
2022-10-11T01:03:10.929Z,1.90
2022-10-11T01:04:10.934Z,1.60
2022-10-11T01:05:28.599Z,2.00
2022-10-11T01:06:12.291Z,1.80
2022-10-11T01:07:10.896Z,1.70
2022-10-11T01:08:10.865Z,1.80
2022-10-11T01:09:10.859Z,2.10
2022-10-11T01:10:10.868Z,1.90
2022-10-11T01:11:10.843Z,1.60
2022-10-11T01:12:11.204Z,1.70
2022-10-11T01:13:10.806Z,1.40
2022-10-11T01:14:10.802Z,1.50
2022-10-11T01:15:10.815Z,1.50
2022-10-11T01:16:10.776Z,1.80
2022-10-11T01:17:10.778Z,1.90
2022-10-11T01:18:10.980Z,1.70
2022-10-11T01:19:10.746Z,1.50
2022-10-11T01:20:10.750Z,1.60
2022-10-11T01:21:10.740Z,1.70
2022-10-11T01:22:10.717Z,2.00
2022-10-11T01:23:10.707Z,1.80
2022-10-11T01:24:11.167Z,2.20
2022-10-11T01:25:10.677Z,1.60
2022-10-11T01:26:10.670Z,1.70
2022-10-11T01:27:10.677Z,2.00
2022-10-11T01:28:10.653Z,1.70
2022-10-11T01:29:10.647Z,1.80
2022-10-11T01:30:10.848Z,1.90
2022-10-11T01:31:10.616Z,1.80
2022-10-11T01:32:10.610Z,2.20
2022-10-11T01:33:10.587Z,1.80
2022-10-11T01:34:10.579Z,2.00
2022-10-11T01:35:10.576Z,1.90
2022-10-11T01:36:10.886Z,1.80
2022-10-11T01:37:10.551Z,2.10
2022-10-11T01:38:10.545Z,1.90
2022-10-11T01:39:10.521Z,1.70
2022-10-11T01:40:10.519Z,1.50
2022-10-11T01:41:10.503Z,2.20
2022-10-11T01:42:10.701Z,2.10
2022-10-11T01:43:10.485Z,2.10
2022-10-11T01:44:10.477Z,1.70
2022-10-11T01:45:10.448Z,2.00
2022-10-11T01:46:10.457Z,2.00
2022-10-11T01:47:10.454Z,2.10
2022-10-11T01:48:10.656Z,1.90
2022-10-11T01:49:10.429Z,2.30
2022-10-11T01:50:10.397Z,1.80
2022-10-11T01:51:10.398Z,1.80
2022-10-11T01:52:10.397Z,1.80
2022-10-11T01:53:10.381Z,1.50
2022-10-11T01:54:10.581Z,1.90
2022-10-11T01:55:10.694Z,1.70
2022-10-11T01:56:10.340Z,2.10
2022-10-11T01:57:10.339Z,2.10
2022-10-11T01:58:10.333Z,2.20
2022-10-11T01:59:10.312Z,1.80
2022-10-11T02:00:10.478Z,1.90
2022-10-11T02:01:10.320Z,1.90
2022-10-11T02:02:10.281Z,1.90
2022-10-11T02:03:10.270Z,1.90
2022-10-11T02:04:10.459Z,2.00
2022-10-11T02:05:10.250Z,2.30
2022-10-11T02:06:10.252Z,2.00
2022-10-11T02:07:10.230Z,2.20
2022-10-11T02:08:10.209Z,2.40
2022-10-11T02:09:10.198Z,2.20
2022-10-11T02:10:10.418Z,2.00
2022-10-11T02:11:10.179Z,1.90
2022-10-11T02:12:10.192Z,1.80
2022-10-11T02:13:10.156Z,2.20
2022-10-11T02:14:10.147Z,2.00
2022-10-11T02:15:10.131Z,1.90
2022-10-11T02:16:10.318Z,1.60
2022-10-11T02:17:10.118Z,1.50
2022-10-11T02:18:10.127Z,1.80
2022-10-11T02:19:10.097Z,2.00
2022-10-11T02:20:10.097Z,1.80
2022-10-11T02:21:10.061Z,1.50
2022-10-11T02:22:10.223Z,2.00
2022-10-11T02:23:10.067Z,2.00
2022-10-11T02:24:10.052Z,1.90
2022-10-11T02:25:10.034Z,2.40
2022-10-11T02:26:10.019Z,2.40
2022-10-11T02:27:09.999Z,1.90
2022-10-11T02:28:10.301Z,1.90
2022-10-11T02:29:09.987Z,1.80
2022-10-11T02:30:09.972Z,1.70
2022-10-11T02:31:09.960Z,2.50
2022-10-11T02:32:09.951Z,1.60
2022-10-11T02:33:09.929Z,1.60
2022-10-11T02:34:10.381Z,1.90
2022-10-11T02:35:09.909Z,1.80
2022-10-11T02:36:09.910Z,1.80
2022-10-11T02:37:09.896Z,1.70
2022-10-11T02:38:09.878Z,2.50
2022-10-11T02:39:09.873Z,2.00
2022-10-11T02:40:10.189Z,2.30
2022-10-11T02:41:09.838Z,2.30
2022-10-11T02:42:17.359Z,1.80
2022-10-11T02:43:09.822Z,2.30
2022-10-11T02:44:09.812Z,1.80
2022-10-11T02:45:09.819Z,1.70
2022-10-11T02:46:10.010Z,2.20
2022-10-11T02:47:09.781Z,2.10
2022-10-11T02:48:09.779Z,1.90
2022-10-11T02:49:09.757Z,1.80
2022-10-11T02:50:09.751Z,2.00
2022-10-11T02:51:09.730Z,1.90
2022-10-11T02:52:10.051Z,1.90
2022-10-11T02:53:09.717Z,2.10
2022-10-11T02:54:09.702Z,1.60
2022-10-11T02:55:09.703Z,1.40
2022-10-11T02:56:09.683Z,2.10
2022-10-11T02:57:09.682Z,2.10
2022-10-11T02:58:10.003Z,2.20
2022-10-11T02:59:09.652Z,2.10
2022-10-11T03:00:09.632Z,1.90
2022-10-11T03:01:09.676Z,2.50
2022-10-11T03:02:09.623Z,2.30
2022-10-11T03:03:09.613Z,2.10
2022-10-11T03:04:09.928Z,2.20
2022-10-11T03:05:09.622Z,2.00
2022-10-11T03:06:09.579Z,1.60
2022-10-11T03:07:09.563Z,2.00
2022-10-11T03:08:09.553Z,1.90
2022-10-11T03:09:09.547Z,1.80
2022-10-11T03:10:09.916Z,1.90
2022-10-11T03:11:09.535Z,1.90
2022-10-11T03:12:09.501Z,2.50
2022-10-11T03:13:09.494Z,2.20
2022-10-11T03:14:09.489Z,2.10
2022-10-11T03:15:09.469Z,2.30
2022-10-11T03:16:10.226Z,2.00
2022-10-11T03:17:34.375Z,2.10
2022-10-11T03:18:10.451Z,2.30
2022-10-11T03:19:09.436Z,2.20
2022-10-11T03:20:09.429Z,1.90
2022-10-11T03:21:09.415Z,2.10
2022-10-11T03:22:09.552Z,2.40
2022-10-11T03:23:09.402Z,1.70
2022-10-11T03:24:09.372Z,2.30
2022-10-11T03:25:09.362Z,2.60
2022-10-11T03:26:09.608Z,2.70
2022-10-11T03:27:09.349Z,2.10
2022-10-11T03:28:09.564Z,2.30
2022-10-11T03:29:09.336Z,2.40
2022-10-11T03:30:09.323Z,2.00
2022-10-11T03:31:09.327Z,2.10
2022-10-11T03:32:09.287Z,2.00
2022-10-11T03:33:09.288Z,2.20
2022-10-11T03:34:09.477Z,2.10
2022-10-11T03:35:09.264Z,2.20
2022-10-11T03:36:09.518Z,2.00
2022-10-11T03:37:09.244Z,2.30
2022-10-11T03:38:12.902Z,2.10
2022-10-11T03:39:09.221Z,2.30
2022-10-11T03:40:09.389Z,2.50
2022-10-11T03:41:09.196Z,2.20
2022-10-11T03:42:09.182Z,2.20
2022-10-11T03:43:09.172Z,2.30
2022-10-11T03:44:09.166Z,2.10
2022-10-11T03:45:09.144Z,2.20
2022-10-11T03:46:09.548Z,2.40
2022-10-11T03:47:09.128Z,2.30
2022-10-11T03:48:09.119Z,2.30
2022-10-11T03:49:09.104Z,2.30
2022-10-11T03:50:09.083Z,2.80
2022-10-11T03:51:09.090Z,2.70
2022-10-11T03:52:09.233Z,2.40
2022-10-11T03:53:09.069Z,2.60
2022-10-11T03:54:09.063Z,2.80
2022-10-11T03:55:09.093Z,2.30
2022-10-11T03:56:09.042Z,2.40
2022-10-11T03:57:09.026Z,2.70
2022-10-11T03:58:09.154Z,2.70
2022-10-11T03:59:08.998Z,2.30
2022-10-11T04:00:08.984Z,2.80
2022-10-11T04:01:09.005Z,2.80
2022-10-11T04:02:09.069Z,2.60
2022-10-11T04:03:08.974Z,3.10
2022-10-11T04:04:09.303Z,2.90
2022-10-11T04:05:08.949Z,2.80
2022-10-11T04:06:09.678Z,2.70
2022-10-11T04:07:08.906Z,2.90
2022-10-11T04:08:12.112Z,2.60
2022-10-11T04:09:08.889Z,2.90
2022-10-11T04:10:09.055Z,2.80
2022-10-11T04:11:08.880Z,3.20
2022-10-11T04:12:08.864Z,2.60
2022-10-11T04:13:08.846Z,3.00
2022-10-11T04:14:08.843Z,2.80
2022-10-11T04:15:08.827Z,3.00
2022-10-11T04:16:09.178Z,2.90
2022-10-11T04:17:08.807Z,2.80
2022-10-11T04:18:08.800Z,3.70
2022-10-11T04:19:08.805Z,3.90
2022-10-11T04:20:08.785Z,4.50
2022-10-11T04:21:08.765Z,3.90
2022-10-11T04:22:09.485Z,4.10
2022-10-11T04:23:08.736Z,3.50
2022-10-11T04:24:08.738Z,3.90
2022-10-11T04:25:08.729Z,3.60
2022-10-11T04:26:09.010Z,3.80
2022-10-11T04:27:08.699Z,3.90
2022-10-11T04:28:08.878Z,4.10
2022-10-11T04:29:08.683Z,3.90
2022-10-11T04:30:08.711Z,4.00
2022-10-11T04:31:08.656Z,4.00
2022-10-11T04:32:08.654Z,3.70
2022-10-11T04:33:08.639Z,3.70
2022-10-11T04:34:08.844Z,3.60
2022-10-11T04:35:08.611Z,3.20
2022-10-11T04:36:08.922Z,3.60
2022-10-11T04:37:08.582Z,3.70
2022-10-11T04:38:08.575Z,3.40
2022-10-11T04:39:08.576Z,3.50
2022-10-11T04:40:08.828Z,2.90
2022-10-11T04:41:08.534Z,3.50
2022-10-11T04:42:08.540Z,3.10
2022-10-11T04:43:08.516Z,3.20
2022-10-11T04:44:08.498Z,3.50
2022-10-11T04:45:08.499Z,3.50
2022-10-11T04:46:09.157Z,3.10
2022-10-11T04:47:08.622Z,3.20
2022-10-11T04:48:08.453Z,3.60
2022-10-11T04:49:08.451Z,3.40
2022-10-11T04:50:08.455Z,3.20
2022-10-11T04:51:08.424Z,3.20
2022-10-11T04:52:08.578Z,3.10
2022-10-11T04:53:08.404Z,3.30
2022-10-11T04:54:08.567Z,3.30
2022-10-11T04:55:08.388Z,3.10
2022-10-11T04:56:08.969Z,3.20
2022-10-11T04:57:08.377Z,3.20
2022-10-11T04:58:08.349Z,3.10
2022-10-11T04:59:08.346Z,3.30
2022-10-11T05:00:08.525Z,3.50
2022-10-11T05:01:08.319Z,2.80
2022-10-11T05:02:08.314Z,3.10
2022-10-11T05:03:08.306Z,3.00
2022-10-11T05:04:08.285Z,2.60
2022-10-11T05:05:08.273Z,2.60
2022-10-11T05:06:08.850Z,2.90
2022-10-11T05:07:08.261Z,2.60
2022-10-11T05:08:08.245Z,2.70
2022-10-11T05:09:08.236Z,2.50
2022-10-11T05:10:08.226Z,2.40
2022-10-11T05:11:08.208Z,2.90
2022-10-11T05:12:09.083Z,3.00
2022-10-11T05:13:08.184Z,3.00
2022-10-11T05:14:08.175Z,3.00
2022-10-11T05:15:08.181Z,2.80
2022-10-11T05:16:10.875Z,2.50
2022-10-11T05:17:08.146Z,3.00
2022-10-11T05:18:08.517Z,2.70
2022-10-11T05:19:08.173Z,2.80
2022-10-11T05:20:08.127Z,2.80
2022-10-11T05:21:08.167Z,2.60
2022-10-11T05:22:08.107Z,2.80
2022-10-11T05:23:08.084Z,2.50
2022-10-11T05:24:19.300Z,2.70
2022-10-11T05:25:16.630Z,2.80
2022-10-11T05:26:15.608Z,2.30
2022-10-11T05:27:16.558Z,2.60
2022-10-11T05:28:17.398Z,2.00
2022-10-11T05:29:35.059Z,2.80
2022-10-11T05:30:16.547Z,2.30
2022-10-11T05:31:15.503Z,2.60
2022-10-11T05:32:16.492Z,2.40
2022-10-11T05:33:15.491Z,2.80
2022-10-11T05:34:07.957Z,2.60
2022-10-11T05:35:08.177Z,2.50
2022-10-11T05:36:08.400Z,3.00
2022-10-11T05:37:07.927Z,2.50
2022-10-11T05:38:07.925Z,2.70
2022-10-11T05:39:07.891Z,2.60
2022-10-11T05:40:07.900Z,2.70
2022-10-11T05:41:08.082Z,2.80
2022-10-11T05:42:10.051Z,2.30
2022-10-11T05:43:07.868Z,2.70
2022-10-11T05:44:07.850Z,2.70
2022-10-11T05:45:07.830Z,2.70
2022-10-11T05:46:08.349Z,3.00
2022-10-11T05:47:07.970Z,3.10
2022-10-11T05:48:07.802Z,2.50
2022-10-11T05:49:07.791Z,2.80
2022-10-11T05:50:07.793Z,2.80
2022-10-11T05:51:07.776Z,2.20
2022-10-11T05:52:07.761Z,2.70
2022-10-11T05:53:08.280Z,2.60
2022-10-11T05:54:07.746Z,2.70
2022-10-11T05:55:07.721Z,3.10
2022-10-11T05:56:08.131Z,2.50
2022-10-11T05:57:07.723Z,2.50
2022-10-11T05:58:07.696Z,3.20
2022-10-11T05:59:07.896Z,2.70
2022-10-11T06:00:07.675Z,2.40
2022-10-11T06:01:07.707Z,2.80
2022-10-11T06:02:07.649Z,2.70
2022-10-11T06:03:07.638Z,2.50
2022-10-11T06:04:07.801Z,2.70
2022-10-11T06:05:07.619Z,3.30
2022-10-11T06:06:07.928Z,3.00
2022-10-11T06:07:07.597Z,3.20
2022-10-11T06:08:07.593Z,3.00
2022-10-11T06:09:07.581Z,3.60
2022-10-11T06:10:07.780Z,2.70
2022-10-11T06:11:11.371Z,3.00
2022-10-11T06:12:07.530Z,3.00
2022-10-11T06:13:07.529Z,2.90
2022-10-11T06:14:07.518Z,2.80
2022-10-11T06:15:07.546Z,3.10
2022-10-11T06:16:08.073Z,2.90
2022-10-11T06:17:07.494Z,3.30
2022-10-11T06:18:07.495Z,2.50
2022-10-11T06:19:07.467Z,2.60
2022-10-11T06:20:07.454Z,3.00
2022-10-11T06:21:07.450Z,2.60
2022-10-11T06:22:07.642Z,2.70
2022-10-11T06:23:07.415Z,3.10
2022-10-11T06:24:07.404Z,2.80
2022-10-11T06:25:07.435Z,3.30
2022-10-11T06:26:07.982Z,3.30
2022-10-11T06:27:07.372Z,3.70
2022-10-11T06:28:07.745Z,3.40
2022-10-11T06:29:07.376Z,3.70
2022-10-11T06:30:07.398Z,2.90
2022-10-11T06:31:07.330Z,2.80
2022-10-11T06:32:07.320Z,2.50
2022-10-11T06:33:07.329Z,3.00
2022-10-11T06:34:07.451Z,3.10
2022-10-11T06:35:07.286Z,3.30
2022-10-11T06:36:07.767Z,2.80
2022-10-11T06:37:07.269Z,2.50
2022-10-11T06:38:07.255Z,3.30
2022-10-11T06:39:16.948Z,2.90
2022-10-11T06:40:14.773Z,2.90
2022-10-11T06:41:14.726Z,3.10
2022-10-11T06:42:15.927Z,3.40
2022-10-11T06:43:14.874Z,2.50
2022-10-11T06:44:11.934Z,2.30
2022-10-11T06:48:41.278Z,2.70
2022-10-11T06:49:48.606Z,2.30
2022-10-11T06:50:59.234Z,2.90
2022-10-11T06:51:42.053Z,3.10
2022-10-11T06:52:41.053Z,3.20
2022-10-11T06:53:41.038Z,2.90
2022-10-11T06:54:44.715Z,3.50
2022-10-11T06:55:41.014Z,3.90
2022-10-11T06:56:41.038Z,3.70
2022-10-11T06:57:41.004Z,4.30
2022-10-11T06:58:40.981Z,4.30
2022-10-11T06:59:40.984Z,4.60
2022-10-11T07:00:41.221Z,5.10
2022-10-11T07:01:41.029Z,4.60
2022-10-11T07:02:40.938Z,5.00
2022-10-11T07:03:40.913Z,4.50
2022-10-11T07:04:40.912Z,4.60
2022-10-11T07:05:40.903Z,4.40
2022-10-11T07:06:41.053Z,4.60
2022-10-11T07:07:40.887Z,4.60
2022-10-11T07:08:40.862Z,4.30
2022-10-11T07:09:40.932Z,4.40
2022-10-11T07:10:40.844Z,4.10
2022-10-11T07:11:40.833Z,3.80
2022-10-11T07:12:41.083Z,3.90
2022-10-11T07:13:40.810Z,3.80
2022-10-11T07:14:40.845Z,4.80
2022-10-11T07:15:40.815Z,4.10
2022-10-11T07:16:40.788Z,4.20
2022-10-11T07:17:40.932Z,3.70
2022-10-11T07:18:40.921Z,3.70
2022-10-11T07:19:40.742Z,3.60
2022-10-11T07:20:40.734Z,3.40
2022-10-11T07:21:40.721Z,4.20
2022-10-11T07:22:40.730Z,4.10
2022-10-11T07:23:40.703Z,3.80
2022-10-11T07:24:40.863Z,3.40
2022-10-11T07:25:40.715Z,3.00
2022-10-11T07:26:40.688Z,3.90
2022-10-11T07:27:40.675Z,3.70
2022-10-11T07:28:40.725Z,3.60
2022-10-11T07:29:40.633Z,3.30
2022-10-11T07:30:40.649Z,3.20
2022-10-11T07:31:40.609Z,3.50
2022-10-11T07:32:40.604Z,3.10
2022-10-11T07:33:40.596Z,3.40
2022-10-11T07:34:40.582Z,3.20
2022-10-11T07:35:42.865Z,3.10
2022-10-11T07:36:41.734Z,2.80
2022-10-11T07:37:40.564Z,2.70
2022-10-11T07:38:40.568Z,2.70
2022-10-11T07:39:40.542Z,2.90
2022-10-11T07:40:40.522Z,2.80
2022-10-11T07:41:45.437Z,2.70
2022-10-11T07:42:41.532Z,2.30
2022-10-11T07:43:40.499Z,2.90
2022-10-11T07:44:40.474Z,3.50
2022-10-11T07:45:40.454Z,4.60
2022-10-11T07:46:40.508Z,5.10
2022-10-11T07:47:40.449Z,4.90
2022-10-11T07:48:40.453Z,3.40
2022-10-11T07:49:40.414Z,3.20
2022-10-11T07:50:40.408Z,2.80
2022-10-11T07:51:40.398Z,3.20
2022-10-11T07:52:40.376Z,2.90
2022-10-11T07:53:40.425Z,3.10
2022-10-11T07:54:40.468Z,3.00
2022-10-11T07:55:40.354Z,2.70
2022-10-11T07:56:40.352Z,2.90
2022-10-11T07:57:40.330Z,2.50
2022-10-11T07:58:40.347Z,2.50
2022-10-11T07:59:40.301Z,2.80
2022-10-11T08:00:40.471Z,2.20
2022-10-11T08:01:40.327Z,2.20
2022-10-11T08:02:40.388Z,2.50
2022-10-11T08:03:40.253Z,2.30
2022-10-11T08:04:40.263Z,2.10
2022-10-11T08:05:40.234Z,3.10
2022-10-11T08:06:40.396Z,2.30
2022-10-11T08:07:40.245Z,2.40
2022-10-11T08:08:40.213Z,2.70
2022-10-11T08:09:40.192Z,2.60
2022-10-11T08:10:40.194Z,2.80
2022-10-11T08:11:40.178Z,3.00
2022-10-11T08:12:40.512Z,2.50
2022-10-11T08:13:40.145Z,2.50
2022-10-11T08:14:40.156Z,2.50
2022-10-11T08:15:40.142Z,2.50
2022-10-11T08:16:40.122Z,2.90
2022-10-11T08:17:40.125Z,2.20
2022-10-11T08:18:40.337Z,2.50
2022-10-11T08:19:40.088Z,2.80
2022-10-11T08:20:40.093Z,2.20
2022-10-11T08:21:40.137Z,2.60
2022-10-11T08:22:40.086Z,2.40
2022-10-11T08:23:40.070Z,2.50
2022-10-11T08:24:40.228Z,2.40
2022-10-11T08:25:40.025Z,1.70
2022-10-11T08:26:40.014Z,2.50
2022-10-11T08:27:39.996Z,2.50
2022-10-11T08:28:40.034Z,2.60
2022-10-11T08:29:39.974Z,2.90
2022-10-11T08:30:40.160Z,2.40
2022-10-11T08:31:39.953Z,2.50
2022-10-11T08:32:39.955Z,2.40
2022-10-11T08:33:39.936Z,2.50
2022-10-11T08:34:39.949Z,2.90
2022-10-11T08:35:39.912Z,2.20
2022-10-11T08:36:40.080Z,2.70
2022-10-11T08:37:39.911Z,2.70
2022-10-11T08:38:39.890Z,2.60
2022-10-11T08:39:39.879Z,2.50
2022-10-11T08:40:39.865Z,2.40
2022-10-11T08:41:39.855Z,2.90
2022-10-11T08:42:40.078Z,2.90
2022-10-11T08:43:39.822Z,3.80
2022-10-11T08:45:09.373Z,7.00
2022-10-11T08:45:40.826Z,8.40
2022-10-11T08:46:39.837Z,4.30
2022-10-11T08:47:39.791Z,3.80
2022-10-11T08:48:39.980Z,2.80
2022-10-11T08:49:39.764Z,2.90
2022-10-11T08:50:39.772Z,2.70
2022-10-11T08:51:39.736Z,2.60
2022-10-11T08:52:39.729Z,2.70
2022-10-11T08:53:39.726Z,2.80
2022-10-11T08:54:39.942Z,2.80
2022-10-11T08:55:39.710Z,2.50
2022-10-11T08:56:39.688Z,2.20
2022-10-11T08:57:39.671Z,2.80
2022-10-11T08:58:39.716Z,2.30
2022-10-11T08:59:39.678Z,2.10
2022-10-11T09:00:40.069Z,2.60
2022-10-11T09:01:39.669Z,2.20
2022-10-11T09:03:03.381Z,2.10
2022-10-11T09:03:40.613Z,2.20
2022-10-11T09:04:39.601Z,2.30
2022-10-11T09:05:39.584Z,2.40
2022-10-11T09:06:39.743Z,2.30
2022-10-11T09:07:39.565Z,2.70
2022-10-11T09:08:39.560Z,2.20
2022-10-11T09:09:39.549Z,2.40
2022-10-11T09:10:39.538Z,2.50
2022-10-11T09:11:39.518Z,2.10
2022-10-11T09:12:40.950Z,2.80
2022-10-11T09:13:39.499Z,2.40
2022-10-11T09:14:39.493Z,2.20
2022-10-11T09:15:39.477Z,2.70
2022-10-11T09:16:39.494Z,2.30
2022-10-11T09:17:39.458Z,2.30
2022-10-11T09:18:39.621Z,2.60
2022-10-11T09:19:39.437Z,2.40
2022-10-11T09:20:39.425Z,2.40
2022-10-11T09:21:39.439Z,2.70
2022-10-11T09:22:39.402Z,2.20
2022-10-11T09:23:39.433Z,2.30
2022-10-11T09:24:39.442Z,2.60
2022-10-11T09:25:39.370Z,2.00
2022-10-11T09:26:39.352Z,2.30
2022-10-11T09:28:01.126Z,2.20
2022-10-11T09:28:40.373Z,2.20
2022-10-11T09:29:39.322Z,2.30
2022-10-11T09:30:39.554Z,2.70
2022-10-11T09:31:39.305Z,2.60
2022-10-11T09:32:39.298Z,2.50
2022-10-11T09:33:39.283Z,2.90
2022-10-11T09:34:39.274Z,2.50
2022-10-11T09:35:39.252Z,2.30
2022-10-11T09:36:39.432Z,2.10
2022-10-11T09:37:39.234Z,2.40
2022-10-11T09:38:39.232Z,2.50
2022-10-11T09:39:39.233Z,1.80
2022-10-11T09:40:39.218Z,2.30
2022-10-11T09:41:39.215Z,2.90
2022-10-11T09:42:39.391Z,2.20
2022-10-11T09:43:39.174Z,2.00
2022-10-11T09:44:39.163Z,2.20
2022-10-11T09:45:39.148Z,2.30
2022-10-11T09:46:39.160Z,2.60
2022-10-11T09:47:39.123Z,2.10
2022-10-11T09:48:39.283Z,2.40
2022-10-11T09:49:39.145Z,1.70
2022-10-11T09:50:39.110Z,2.60
2022-10-11T09:51:39.123Z,2.20
2022-10-11T09:52:39.091Z,2.50
2022-10-11T09:53:39.060Z,2.20
2022-10-11T09:54:39.221Z,2.90
2022-10-11T09:55:39.041Z,2.20
2022-10-11T09:56:39.027Z,2.00
2022-10-11T09:57:39.030Z,2.50
2022-10-11T09:58:39.013Z,2.30
2022-10-11T09:59:39.003Z,2.40
2022-10-11T10:00:39.225Z,2.80
2022-10-11T10:01:39.044Z,2.80
2022-10-11T10:02:38.964Z,2.00
2022-10-11T10:03:38.953Z,2.40
2022-10-11T10:04:38.948Z,2.40
2022-10-11T10:05:38.932Z,2.20
2022-10-11T10:06:39.260Z,3.30
2022-10-11T10:07:38.906Z,3.40
2022-10-11T10:08:38.906Z,3.20
2022-10-11T10:09:38.906Z,5.30
2022-10-11T10:10:38.882Z,3.30
2022-10-11T10:11:38.875Z,3.10
2022-10-11T10:12:39.084Z,2.80
2022-10-11T10:13:38.834Z,2.50
2022-10-11T10:14:38.829Z,2.40
2022-10-11T10:15:39.843Z,2.50
2022-10-11T10:16:38.806Z,2.60
2022-10-11T10:17:38.815Z,2.30
2022-10-11T10:18:38.972Z,2.40
2022-10-11T10:19:43.774Z,2.00
2022-10-11T10:20:39.764Z,1.70
2022-10-11T10:21:38.771Z,1.90
2022-10-11T10:22:38.754Z,1.80
2022-10-11T10:23:38.734Z,1.90
2022-10-11T10:24:38.989Z,1.80
2022-10-11T10:25:43.244Z,1.80
2022-10-11T10:26:38.697Z,2.30
2022-10-11T10:27:38.725Z,2.10
2022-10-11T10:28:38.728Z,2.40
2022-10-11T10:29:38.665Z,2.30
2022-10-11T10:30:38.844Z,1.70
2022-10-11T10:31:55.382Z,2.00
2022-10-11T10:32:39.640Z,2.10
2022-10-11T10:33:38.625Z,2.00
2022-10-11T10:34:38.611Z,2.20
2022-10-11T10:35:38.601Z,2.30
2022-10-11T10:36:38.766Z,1.80
2022-10-11T10:37:38.606Z,2.10
2022-10-11T10:38:39.288Z,1.80
2022-10-11T10:39:38.585Z,1.80
2022-10-11T10:40:38.561Z,1.90
2022-10-11T10:41:38.539Z,2.10
2022-10-11T10:42:38.737Z,1.50
2022-10-11T10:43:38.529Z,2.00
2022-10-11T10:44:38.505Z,1.80
2022-10-11T10:45:38.506Z,2.10
2022-10-11T10:46:38.466Z,1.80
2022-10-11T10:47:38.461Z,2.00
2022-10-11T10:49:12.025Z,1.70
2022-10-11T10:49:53.537Z,1.50
2022-10-11T10:50:39.437Z,2.10
2022-10-11T10:51:38.426Z,2.20
2022-10-11T10:52:38.439Z,2.00
2022-10-11T10:53:38.406Z,2.40
2022-10-11T10:54:39.152Z,2.00
2022-10-11T10:55:38.377Z,2.10
2022-10-11T10:56:38.367Z,2.20
2022-10-11T10:57:38.357Z,1.80
2022-10-11T10:58:38.346Z,2.10
2022-10-11T10:59:38.348Z,1.70
2022-10-11T11:00:38.670Z,1.90
2022-10-11T11:01:38.363Z,1.50
2022-10-11T11:02:46.042Z,1.70
2022-10-11T11:03:38.295Z,1.90
2022-10-11T11:04:46.099Z,1.60
2022-10-11T11:05:47.280Z,1.60
2022-10-11T11:06:45.767Z,1.60
2022-10-11T11:07:45.761Z,2.10
2022-10-11T11:08:45.755Z,1.90
2022-10-11T11:09:45.740Z,1.80
2022-10-11T11:10:38.207Z,2.10
2022-10-11T11:11:38.405Z,1.90
2022-10-11T11:12:38.208Z,1.10
2022-10-11T11:13:45.693Z,2.20
2022-10-11T11:14:46.000Z,2.20
2022-10-11T11:15:38.473Z,2.40
2022-10-11T11:16:38.186Z,2.30
2022-10-11T11:17:38.390Z,2.20
2022-10-11T11:18:38.168Z,2.60
2022-10-11T11:19:38.114Z,2.30
2022-10-11T11:20:38.144Z,6.40
2022-10-11T11:21:41.489Z,5.80
2022-10-11T11:22:38.111Z,4.00
2022-10-11T11:23:38.344Z,3.80
2022-10-11T11:24:38.204Z,3.20
2022-10-11T11:25:42.553Z,4.00
2022-10-11T11:26:44.043Z,5.80
2022-10-11T11:27:39.055Z,4.50
2022-10-11T11:28:38.060Z,2.80
2022-10-11T11:29:38.552Z,1.90
2022-10-11T11:30:38.059Z,1.60
2022-10-11T11:31:37.982Z,1.50
2022-10-11T11:32:40.297Z,1.80
2022-10-11T11:33:38.961Z,2.00
2022-10-11T11:34:38.001Z,1.60
2022-10-11T11:35:38.135Z,1.70
2022-10-11T11:36:37.949Z,2.00
2022-10-11T11:37:37.921Z,1.40
2022-10-11T11:38:37.912Z,1.60
2022-10-11T11:39:37.932Z,1.60
2022-10-11T11:40:37.904Z,1.60
2022-10-11T11:41:38.229Z,1.90
2022-10-11T11:42:37.881Z,1.40
2022-10-11T11:43:37.861Z,1.80
2022-10-11T11:44:37.858Z,2.00
2022-10-11T11:45:37.836Z,1.60
2022-10-11T11:46:37.825Z,2.00
2022-10-11T11:47:38.037Z,1.60
2022-10-11T11:48:37.796Z,1.90
2022-10-11T11:49:37.876Z,2.00
2022-10-11T11:50:37.784Z,1.30
2022-10-11T11:51:37.782Z,2.30
2022-10-11T11:52:37.764Z,1.60
2022-10-11T11:53:37.938Z,1.80
2022-10-11T11:54:37.744Z,1.60
2022-10-11T11:55:37.730Z,1.40
2022-10-11T11:56:37.715Z,1.40
2022-10-11T11:57:37.711Z,1.40
2022-10-11T11:58:37.697Z,1.20
2022-10-11T11:59:37.915Z,1.70
2022-10-11T12:00:37.681Z,1.70
2022-10-11T12:01:37.703Z,1.70
2022-10-11T12:02:37.653Z,1.50
2022-10-11T12:03:41.418Z,1.20
2022-10-11T12:04:37.626Z,1.50
2022-10-11T12:05:37.799Z,2.00
2022-10-11T12:06:47.754Z,1.70
2022-10-11T12:07:38.647Z,1.80
2022-10-11T12:08:37.576Z,1.60
2022-10-11T12:09:37.586Z,1.40
2022-10-11T12:10:37.591Z,2.00
2022-10-11T12:11:37.725Z,2.00
2022-10-11T12:12:37.543Z,2.10
2022-10-11T12:13:37.528Z,2.30
2022-10-11T12:14:37.528Z,1.70
2022-10-11T12:15:37.526Z,2.30
2022-10-11T12:16:37.521Z,2.30
2022-10-11T12:17:37.711Z,2.60
2022-10-11T12:18:42.531Z,2.10
2022-10-11T12:19:38.491Z,2.20
2022-10-11T12:20:37.461Z,1.50
2022-10-11T12:21:37.463Z,1.70
2022-10-11T12:22:37.431Z,1.60
2022-10-11T12:23:37.722Z,1.80
2022-10-11T12:24:37.413Z,1.70
2022-10-11T12:25:37.414Z,2.00
2022-10-11T12:26:37.382Z,1.80
2022-10-11T12:27:37.376Z,1.60
2022-10-11T12:28:37.423Z,1.80
2022-10-11T12:29:37.401Z,1.60
2022-10-11T12:30:37.366Z,1.90
2022-10-11T12:31:39.360Z,1.70
2022-10-11T12:32:37.319Z,1.80
2022-10-11T12:33:37.312Z,1.80
2022-10-11T12:34:37.336Z,1.90
2022-10-11T12:35:37.443Z,1.80
2022-10-11T12:36:37.272Z,1.40
2022-10-11T12:37:37.272Z,1.80
2022-10-11T12:38:37.279Z,2.10
2022-10-11T12:39:37.254Z,2.30
2022-10-11T12:40:37.265Z,1.90
2022-10-11T12:41:37.273Z,2.20
2022-10-11T12:42:37.224Z,2.10
2022-10-11T12:43:37.224Z,1.70
2022-10-11T12:44:37.203Z,1.80
2022-10-11T12:45:37.194Z,1.70
2022-10-11T12:46:37.167Z,2.30
2022-10-11T12:47:37.317Z,2.20
2022-10-11T12:48:40.788Z,1.50
2022-10-11T12:49:37.142Z,2.00
2022-10-11T12:50:37.123Z,1.90
2022-10-11T12:51:37.122Z,2.30
2022-10-11T12:52:37.108Z,2.10
2022-10-11T12:53:37.265Z,1.90
2022-10-11T12:54:37.490Z,1.80
2022-10-11T12:55:37.110Z,1.90
2022-10-11T12:56:37.063Z,1.40
2022-10-11T12:57:37.097Z,2.00
2022-10-11T12:58:37.036Z,1.30
2022-10-11T12:59:37.212Z,2.00
2022-10-11T13:00:37.038Z,2.00
2022-10-11T13:01:37.068Z,1.90
2022-10-11T13:02:36.994Z,2.30
2022-10-11T13:03:36.988Z,1.80
2022-10-11T13:04:36.964Z,1.60
2022-10-11T13:05:38.441Z,2.00
2022-10-11T13:06:36.953Z,2.10
2022-10-11T13:07:36.940Z,1.70
2022-10-11T13:08:36.964Z,2.00
2022-10-11T13:09:36.916Z,1.40
2022-10-11T13:10:36.915Z,1.70
2022-10-11T13:11:37.097Z,1.70
2022-10-11T13:12:36.893Z,2.00
2022-10-11T13:13:36.963Z,2.00
2022-10-11T13:14:36.866Z,2.10
2022-10-11T13:15:36.855Z,2.00
2022-10-11T13:16:36.854Z,2.20
2022-10-11T13:17:38.629Z,1.20
2022-10-11T13:18:36.855Z,1.70
2022-10-11T13:19:36.887Z,1.80
2022-10-11T13:20:38.983Z,1.50
2022-10-11T13:21:37.789Z,1.70